KCSM/CSM METAR and TAF weather

Enter ICAO airport designator
Station Type Date Time Source
KCSM METAR 2019/08/24 09:53 UTC NOAA

KCSM 240953Z AUTO 19010KT 10SM CLR 21/17 A2999 RMK AO2 SLP128 T02110167


Station Type Date Time Source
KCSM Decoded METAR 2019/08/24 09:53 UTC NOAA

Station name not available
Aug 24, 2019 - 05:53 AM EDT / 2019.08.24 0953 UTC
Wind: from the S (190 degrees) at 12 MPH (10 KT):0
Visibility: 10 mile(s):0
Sky conditions: clear
Temperature: 70.0 F (21.1 C)
Dew Point: 62.1 F (16.7 C)
Relative Humidity: 75%
Pressure (altimeter): 29.99 in. Hg (1015 hPa)
ob: KCSM 240953Z AUTO 19010KT 10SM CLR 21/17 A2999 RMK AO2 SLP128 T02110167
cycle: 10

Station Type Date Time Source
KCSM TAF 2019/08/24 10:48 UTC NOAA

TAF
AMD KCSM 240946Z 2410/2506 18008KT P6SM FEW030 OVC150
FM241600 16014KT P6SM SCT040 SCT250

Example: see airport list